createdAt,value
2023-03-24T00:02:13.620Z,95067.97
2023-03-24T00:04:42.688Z,95072.44
2023-03-24T00:07:14.859Z,95062.69
2023-03-24T00:09:42.191Z,95062.88
2023-03-24T00:12:14.039Z,95064.28
2023-03-24T00:14:40.947Z,95066.16
2023-03-24T00:17:13.876Z,95059.84
2023-03-24T00:19:41.058Z,95063.50
2023-03-24T00:22:08.130Z,95064.28
2023-03-24T00:24:35.312Z,95079.13
2023-03-24T00:27:03.450Z,95079.38
2023-03-24T00:29:30.155Z,95077.53
2023-03-24T00:31:59.567Z,95081.00
2023-03-24T00:34:29.433Z,95063.72
2023-03-24T00:36:58.877Z,95082.03
2023-03-24T00:39:27.729Z,95072.22
2023-03-24T00:41:58.831Z,95067.97
2023-03-24T00:44:25.530Z,95066.34
2023-03-24T00:46:57.483Z,95062.69
2023-03-24T00:49:42.070Z,95057.38
2023-03-24T00:52:14.300Z,95056.56
2023-03-24T00:54:46.011Z,95054.75
2023-03-24T00:57:21.664Z,95061.06
2023-03-24T00:59:52.330Z,95059.44
2023-03-24T01:02:22.562Z,95055.78
2023-03-24T01:04:54.277Z,95055.78
2023-03-24T01:07:26.848Z,95060.03
2023-03-24T01:09:59.751Z,95055.78
2023-03-24T01:12:30.118Z,95060.25
2023-03-24T01:15:00.401Z,95057.38
2023-03-24T01:17:34.638Z,95054.16
2023-03-24T01:20:08.394Z,95055.78
2023-03-24T01:22:40.060Z,95056.38
2023-03-24T01:25:16.627Z,95054.94
2023-03-24T01:27:49.456Z,95049.53
2023-03-24T01:30:19.821Z,95059.69
2023-03-24T01:32:46.638Z,95051.94
2023-03-24T01:35:16.540Z,95049.91
2023-03-24T01:37:43.229Z,95049.09
2023-03-24T01:40:12.524Z,95046.25
2023-03-24T01:42:42.505Z,95047.06
2023-03-24T01:45:40.648Z,95048.66
2023-03-24T01:48:29.222Z,95043.38
2023-03-24T01:51:11.289Z,95050.06
2023-03-24T01:53:40.833Z,95051.91
2023-03-24T01:56:08.104Z,95055.13
2023-03-24T01:58:35.330Z,95047.19
2023-03-24T02:01:02.490Z,95049.84
2023-03-24T02:03:34.034Z,95050.66
2023-03-24T02:06:03.561Z,95056.75
2023-03-24T02:08:46.833Z,95063.69
2023-03-24T02:11:15.879Z,95070.59
2023-03-24T02:13:44.685Z,95058.41
2023-03-24T02:16:33.316Z,95052.88
2023-03-24T02:19:26.643Z,95061.03
2023-03-24T02:22:08.642Z,95062.66
2023-03-24T02:24:38.107Z,95060.81
2023-03-24T02:27:30.043Z,95055.50
2023-03-24T02:29:56.629Z,95056.34
2023-03-24T02:32:35.385Z,95061.63
2023-03-24T02:35:16.072Z,95064.28
2023-03-24T02:37:43.034Z,95062.41
2023-03-24T02:40:18.792Z,95061.63
2023-03-24T02:43:03.807Z,95044.16
2023-03-24T02:45:40.452Z,95052.06
2023-03-24T02:48:19.226Z,95055.50
2023-03-24T02:51:16.333Z,95038.84
2023-03-24T02:53:59.105Z,95022.16
2023-03-24T02:56:48.006Z,95029.91
2023-03-24T02:59:45.043Z,95024.03
2023-03-24T03:02:19.903Z,95025.63
2023-03-24T03:04:50.053Z,95016.88
2023-03-24T03:07:21.938Z,95022.16
2023-03-24T03:10:11.052Z,95026.44
2023-03-24T03:12:40.250Z,95027.47
2023-03-24T03:15:12.254Z,95017.69
2023-03-24T03:17:41.596Z,95016.09
2023-03-24T03:20:13.548Z,95024.03
2023-03-24T03:22:49.014Z,95025.84
2023-03-24T03:25:20.856Z,95025.00
2023-03-24T03:27:47.602Z,95031.13
2023-03-24T03:30:19.139Z,95031.13
2023-03-24T03:32:56.678Z,95019.72
2023-03-24T03:35:28.200Z,95007.53
2023-03-24T03:38:14.761Z,95011.00
2023-03-24T03:41:00.180Z,95007.53
2023-03-24T03:43:27.358Z,95012.81
2023-03-24T03:45:56.626Z,95015.47
2023-03-24T03:48:26.835Z,95021.78
2023-03-24T03:51:03.093Z,95016.50
2023-03-24T03:54:09.022Z,95030.31
2023-03-24T03:59:34.035Z,95027.06
2023-03-24T04:02:38.096Z,95027.91
2023-03-24T04:05:27.686Z,95032.38
2023-03-24T04:08:12.668Z,95044.56
2023-03-24T04:10:57.416Z,95037.66
2023-03-24T04:13:42.510Z,95036.03
2023-03-24T04:16:17.970Z,95039.72
2023-03-24T04:19:09.804Z,95039.72
2023-03-24T04:21:39.460Z,95039.72
2023-03-24T04:24:26.446Z,95033.63
2023-03-24T04:27:01.520Z,95040.75
2023-03-24T04:29:37.084Z,95046.03
2023-03-24T04:32:41.608Z,95037.28
2023-03-24T04:35:31.761Z,95041.75
2023-03-24T04:38:09.240Z,95041.75
2023-03-24T04:40:39.070Z,95043.63
2023-03-24T04:43:11.405Z,95052.34
2023-03-24T04:45:38.392Z,95056.00
2023-03-24T04:48:09.961Z,95057.63
2023-03-24T04:50:37.520Z,95057.63
2023-03-24T04:53:05.082Z,95061.09
2023-03-24T04:55:37.881Z,95067.41
2023-03-24T04:58:07.723Z,95066.59
2023-03-24T05:00:37.051Z,95069.22
2023-03-24T05:03:06.478Z,95071.28
2023-03-24T05:05:36.000Z,95073.69
2023-03-24T05:08:02.612Z,95077.16
2023-03-24T05:10:29.565Z,95068.63
2023-03-24T05:12:58.869Z,95070.47
2023-03-24T05:15:25.492Z,95073.09
2023-03-24T05:17:53.096Z,95077.59
2023-03-24T05:20:24.619Z,95083.47
2023-03-24T05:22:59.603Z,95073.94
2023-03-24T05:25:26.384Z,95088.19
2023-03-24T05:27:55.961Z,95081.28
2023-03-24T05:30:27.362Z,95090.81
2023-03-24T05:32:59.451Z,95088.19
2023-03-24T05:35:28.836Z,95090.81
2023-03-24T05:37:56.205Z,95090.81
2023-03-24T05:40:30.792Z,95095.06
2023-03-24T05:42:57.541Z,95088.19
2023-03-24T05:45:29.575Z,95084.50
2023-03-24T05:47:56.810Z,95082.88
2023-03-24T05:50:25.950Z,95089.78
2023-03-24T05:52:55.348Z,95079.22
2023-03-24T05:55:24.125Z,95079.22
2023-03-24T05:57:53.033Z,95084.50
2023-03-24T06:00:20.764Z,95084.28
2023-03-24T06:02:47.552Z,95094.63
2023-03-24T06:05:17.330Z,95092.00
2023-03-24T06:07:46.420Z,95097.88
2023-03-24T06:10:14.591Z,95094.44
2023-03-24T06:12:41.540Z,95090.53
2023-03-24T06:15:08.970Z,95092.16
2023-03-24T06:17:38.588Z,95091.13
2023-03-24T06:20:12.391Z,95089.50
2023-03-24T06:22:41.217Z,95091.75
2023-03-24T06:25:09.757Z,95101.28
2023-03-24T06:27:42.514Z,95093.94
2023-03-24T06:30:09.633Z,95091.06
2023-03-24T06:32:39.053Z,95090.66
2023-03-24T06:35:07.352Z,95092.28
2023-03-24T06:37:45.099Z,95102.63
2023-03-24T06:40:15.404Z,95104.22
2023-03-24T06:42:44.823Z,95105.88
2023-03-24T06:45:14.734Z,95109.13
2023-03-24T06:47:46.161Z,95102.72
2023-03-24T06:50:15.036Z,95101.31
2023-03-24T06:52:44.524Z,95108.31
2023-03-24T06:55:13.655Z,95103.47
2023-03-24T06:57:42.462Z,95099.84
2023-03-24T07:00:11.839Z,95099.56
2023-03-24T07:02:38.758Z,95099.19
2023-03-24T07:05:08.151Z,95105.72
2023-03-24T07:08:16.798Z,95114.09
2023-03-24T07:10:24.680Z,95122.03
2023-03-24T07:12:51.487Z,95119.81
2023-03-24T07:15:20.653Z,95118.59
2023-03-24T07:17:50.463Z,95118.41
2023-03-24T07:23:07.590Z,95121.47
2023-03-24T07:25:36.656Z,95126.13
2023-03-24T07:28:06.003Z,95122.66
2023-03-24T07:30:40.551Z,95120.47
2023-03-24T07:33:15.200Z,95114.75
2023-03-24T07:35:51.153Z,95118.41
2023-03-24T07:38:19.973Z,95122.47
2023-03-24T07:40:48.733Z,95119.22
2023-03-24T07:43:20.629Z,95119.22
2023-03-24T07:45:49.958Z,95109.72
2023-03-24T07:48:21.444Z,95107.09
2023-03-24T07:50:47.872Z,95098.75
2023-03-24T07:53:20.147Z,95102.41
2023-03-24T07:55:47.078Z,95107.06
2023-03-24T07:58:19.080Z,95100.97
2023-03-24T08:00:48.304Z,95100.38
2023-03-24T08:03:15.623Z,95093.25
2023-03-24T08:05:45.267Z,95094.22
2023-03-24T08:08:14.035Z,95089.16
2023-03-24T08:10:40.665Z,95083.63
2023-03-24T08:13:07.490Z,95078.56
2023-03-24T08:15:38.005Z,95081.97
2023-03-24T08:18:04.700Z,95083.78
2023-03-24T08:20:31.337Z,95084.53
2023-03-24T08:22:58.040Z,95085.31
2023-03-24T08:25:25.746Z,95080.00
2023-03-24T08:27:57.130Z,95081.59
2023-03-24T08:30:25.207Z,95070.16
2023-03-24T08:32:59.259Z,95078.88
2023-03-24T08:35:38.738Z,95066.09
2023-03-24T08:38:07.160Z,95068.06
2023-03-24T08:40:37.055Z,95067.22
2023-03-24T08:43:08.416Z,95061.44
2023-03-24T08:45:37.685Z,95054.50
2023-03-24T08:48:05.821Z,95048.78
2023-03-24T08:50:39.523Z,95044.66
2023-03-24T08:53:08.796Z,95044.63
2023-03-24T08:55:37.913Z,95040.53
2023-03-24T08:58:07.290Z,95044.16
2023-03-24T09:00:38.787Z,95030.03
2023-03-24T09:03:07.624Z,95030.19
2023-03-24T09:05:44.394Z,95026.69
2023-03-24T09:08:17.225Z,95014.63
2023-03-24T09:10:46.893Z,95017.00
2023-03-24T09:13:15.921Z,95006.72
2023-03-24T09:15:49.983Z,95010.38
2023-03-24T09:18:19.325Z,95006.66
2023-03-24T09:20:48.979Z,95000.69
2023-03-24T09:23:22.168Z,94997.19
2023-03-24T09:25:52.141Z,95002.47
2023-03-24T09:28:19.015Z,94987.38
2023-03-24T09:30:48.260Z,94995.91
2023-03-24T09:33:15.422Z,94995.47
2023-03-24T09:35:42.395Z,94992.00
2023-03-24T09:38:12.384Z,94997.88
2023-03-24T09:40:55.844Z,94988.69
2023-03-24T09:43:40.991Z,94986.44
2023-03-24T09:46:14.947Z,94978.25
2023-03-24T09:48:50.988Z,94973.78
2023-03-24T09:51:29.766Z,94965.53
2023-03-24T09:54:18.382Z,94969.19
2023-03-24T09:56:52.359Z,94969.19
2023-03-24T09:59:28.996Z,94966.31
2023-03-24T10:01:55.688Z,94960.22
2023-03-24T10:04:27.229Z,94958.94
2023-03-24T10:07:16.813Z,94958.16
2023-03-24T10:09:43.450Z,94961.38
2023-03-24T10:12:28.376Z,94952.41
2023-03-24T10:18:01.246Z,94941.00
2023-03-24T10:20:55.024Z,94941.38
2023-03-24T10:23:57.266Z,94947.81
2023-03-24T10:26:49.850Z,94940.47
2023-03-24T10:29:30.977Z,94939.56
2023-03-24T10:32:03.060Z,94935.31
2023-03-24T10:34:34.867Z,94937.94
2023-03-24T10:37:07.466Z,94930.22
2023-03-24T10:39:44.288Z,94933.22
2023-03-24T10:42:25.699Z,94929.53
2023-03-24T10:44:54.534Z,94932.19
2023-03-24T10:47:32.885Z,94928.50
2023-03-24T10:50:12.583Z,94927.47
2023-03-24T10:52:46.979Z,94923.22
2023-03-24T10:55:23.046Z,94922.41
2023-03-24T10:57:51.029Z,94917.13
2023-03-24T11:00:24.381Z,94919.53
2023-03-24T11:03:01.739Z,94911.16
2023-03-24T11:05:38.463Z,94919.09
2023-03-24T11:08:17.510Z,94909.75
2023-03-24T11:10:49.601Z,94910.53
2023-03-24T11:13:19.064Z,94902.38
2023-03-24T11:16:14.229Z,94905.25
2023-03-24T11:18:58.299Z,94899.38
2023-03-24T11:21:25.270Z,94898.78
2023-03-24T11:23:54.681Z,94888.22
2023-03-24T11:26:31.154Z,94888.22
2023-03-24T11:29:10.749Z,94884.97
2023-03-24T11:31:40.049Z,94866.22
2023-03-24T11:34:20.049Z,94869.78
2023-03-24T11:36:51.262Z,94863.69
2023-03-24T11:39:21.591Z,94867.59
2023-03-24T11:42:12.868Z,94872.88
2023-03-24T11:44:39.322Z,94872.31
2023-03-24T11:47:13.350Z,94856.41
2023-03-24T11:49:52.288Z,94855.16
2023-03-24T11:52:37.130Z,94854.34
2023-03-24T11:55:17.655Z,94846.41
2023-03-24T11:57:59.023Z,94844.00
2023-03-24T12:00:51.282Z,94842.97
2023-03-24T12:03:39.615Z,94831.19
2023-03-24T12:06:40.176Z,94832.00
2023-03-24T12:09:30.176Z,94829.38
2023-03-24T12:12:08.122Z,94819.81
2023-03-24T12:15:25.127Z,94828.31
2023-03-24T12:18:03.419Z,94819.81
2023-03-24T12:20:40.673Z,94822.81
2023-03-24T12:23:13.274Z,94808.84
2023-03-24T12:25:47.068Z,94804.84
2023-03-24T12:28:33.030Z,94802.56
2023-03-24T12:31:13.022Z,94795.03
2023-03-24T12:34:04.195Z,94792.41
2023-03-24T12:37:09.244Z,94794.47
2023-03-24T12:39:39.489Z,94786.41
2023-03-24T12:42:19.662Z,94778.69
2023-03-24T12:45:01.623Z,94779.28
2023-03-24T12:47:43.518Z,94772.16
2023-03-24T12:50:13.177Z,94765.25
2023-03-24T12:53:08.568Z,94761.56
2023-03-24T12:55:57.244Z,94756.72
2023-03-24T12:58:45.778Z,94763.06
2023-03-24T13:01:33.135Z,94750.25
2023-03-24T13:04:09.656Z,94745.44
2023-03-24T13:07:03.634Z,94752.69
2023-03-24T13:10:01.815Z,94748.19
2023-03-24T13:12:55.383Z,94744.97
2023-03-24T13:15:34.101Z,94734.38
2023-03-24T13:18:00.786Z,94731.16
2023-03-24T13:20:35.191Z,94738.06
2023-03-24T13:23:12.222Z,94733.56
2023-03-24T13:26:06.460Z,94727.94
2023-03-24T13:28:38.692Z,94720.56
2023-03-24T13:31:05.415Z,94722.63
2023-03-24T13:33:32.366Z,94718.94
2023-03-24T13:36:30.104Z,94729.88
2023-03-24T13:39:04.130Z,94722.16
2023-03-24T13:41:37.494Z,94720.56
2023-03-24T13:44:07.395Z,94718.94
2023-03-24T13:46:40.217Z,94708.81
2023-03-24T13:49:09.053Z,94711.47
2023-03-24T13:51:41.082Z,94707.56
2023-03-24T13:54:22.317Z,94700.63
2023-03-24T13:56:55.754Z,94697.75
2023-03-24T13:59:30.437Z,94701.13
2023-03-24T14:02:12.113Z,94698.34
2023-03-24T14:05:02.309Z,94694.31
2023-03-24T14:07:42.096Z,94688.19
2023-03-24T14:10:14.832Z,94678.75
2023-03-24T14:12:53.489Z,94682.09
2023-03-24T14:15:23.787Z,94686.69
2023-03-24T14:17:53.692Z,94680.38
2023-03-24T14:20:38.132Z,94675.53
2023-03-24T14:23:06.939Z,94674.97
2023-03-24T14:25:36.867Z,94675.53
2023-03-24T14:28:28.264Z,94678.19
2023-03-24T14:31:15.594Z,94671.50
2023-03-24T14:33:54.461Z,94674.50
2023-03-24T14:36:30.552Z,94676.22
2023-03-24T14:39:00.989Z,94674.97
2023-03-24T14:41:31.929Z,94680.84
2023-03-24T14:43:59.186Z,94677.06
2023-03-24T14:46:53.353Z,94672.22
2023-03-24T14:49:30.265Z,94670.16
2023-03-24T14:52:18.028Z,94671.75
2023-03-24T14:54:56.630Z,94665.91
2023-03-24T14:57:31.550Z,94672.22
2023-03-24T15:00:27.381Z,94674.16
2023-03-24T15:03:11.158Z,94666.81
2023-03-24T15:05:40.789Z,94660.69
2023-03-24T15:08:10.570Z,94657.47
2023-03-24T15:10:42.451Z,94662.44
2023-03-24T15:13:51.423Z,94665.91
2023-03-24T15:16:21.491Z,94657.94
2023-03-24T15:21:47.889Z,94660.78
2023-03-24T15:24:30.961Z,94661.84
2023-03-24T15:27:09.823Z,94658.16
2023-03-24T15:29:40.841Z,94660.56
2023-03-24T15:32:10.666Z,94659.78
2023-03-24T15:34:40.240Z,94662.44
2023-03-24T15:37:09.685Z,94656.53
2023-03-24T15:39:37.562Z,94661.84
2023-03-24T15:42:15.928Z,94667.13
2023-03-24T15:44:42.572Z,94659.44
2023-03-24T15:47:26.247Z,94660.22
2023-03-24T15:49:54.867Z,94653.31
2023-03-24T15:52:27.365Z,94646.41
2023-03-24T15:54:57.411Z,94655.41
2023-03-24T15:57:27.245Z,94659.09
2023-03-24T16:00:09.017Z,94660.13
2023-03-24T16:02:55.131Z,94660.13
2023-03-24T16:05:29.170Z,94657.47
2023-03-24T16:08:23.475Z,94664.84
2023-03-24T16:11:03.301Z,94663.25
2023-03-24T16:13:32.245Z,94656.34
2023-03-24T16:16:21.713Z,94666.94
2023-03-24T16:18:52.814Z,94667.72
2023-03-24T16:21:25.679Z,94659.00
2023-03-24T16:23:58.048Z,94660.03
2023-03-24T16:26:28.051Z,94657.59
2023-03-24T16:28:55.528Z,94664.50
2023-03-24T16:31:27.403Z,94661.06
2023-03-24T16:33:59.438Z,94661.28
2023-03-24T16:36:26.788Z,94656.00
2023-03-24T16:39:19.030Z,94660.47
2023-03-24T16:41:45.858Z,94663.38
2023-03-24T16:44:17.223Z,94663.59
2023-03-24T16:46:48.881Z,94662.56
2023-03-24T16:49:19.272Z,94663.59
2023-03-24T16:51:49.228Z,94666.22
2023-03-24T16:54:18.072Z,94651.38
2023-03-24T16:56:47.656Z,94657.72
2023-03-24T16:59:15.686Z,94663.00
2023-03-24T17:01:47.626Z,94661.19
2023-03-24T17:04:22.252Z,94666.69
2023-03-24T17:06:53.379Z,94658.19
2023-03-24T17:09:23.188Z,94664.28
2023-03-24T17:11:57.558Z,94672.47
2023-03-24T17:14:24.368Z,94661.06
2023-03-24T17:16:53.963Z,94667.59
2023-03-24T17:19:21.811Z,94665.56
2023-03-24T17:22:05.483Z,94669.25
2023-03-24T17:24:38.120Z,94675.53
2023-03-24T17:27:15.107Z,94671.28
2023-03-24T17:29:41.971Z,94666.00
2023-03-24T17:32:08.723Z,94668.91
2023-03-24T17:34:35.382Z,94674.19
2023-03-24T17:37:04.300Z,94672.78
2023-03-24T17:39:33.086Z,94672.22
2023-03-24T17:42:02.379Z,94669.38
2023-03-24T17:44:33.867Z,94673.84
2023-03-24T17:47:02.951Z,94674.66
2023-03-24T17:49:35.084Z,94677.53
2023-03-24T17:52:04.736Z,94674.06
2023-03-24T17:54:31.466Z,94677.53
2023-03-24T17:57:19.323Z,94681.19
2023-03-24T17:59:46.351Z,94681.19
2023-03-24T18:02:17.666Z,94680.97
2023-03-24T18:04:47.446Z,94686.50
2023-03-24T18:07:19.709Z,94671.41
2023-03-24T18:09:46.482Z,94678.78
2023-03-24T18:12:13.124Z,94678.00
2023-03-24T18:14:39.768Z,94683.28
2023-03-24T18:17:09.524Z,94682.72
2023-03-24T18:19:36.465Z,94685.34
2023-03-24T18:22:03.151Z,94685.34
2023-03-24T18:24:30.071Z,94683.75
2023-03-24T18:26:59.160Z,94685.34
2023-03-24T18:29:26.538Z,94691.44
2023-03-24T18:31:53.314Z,94688.56
2023-03-24T18:34:23.137Z,94691.22
2023-03-24T18:36:50.185Z,94680.63
2023-03-24T18:39:17.093Z,94689.34
2023-03-24T18:41:43.965Z,94689.16
2023-03-24T18:44:15.326Z,94690.19
2023-03-24T18:46:42.773Z,94690.97
2023-03-24T18:49:16.223Z,94697.09
2023-03-24T18:51:45.069Z,94695.94
2023-03-24T18:54:12.548Z,94695.94
2023-03-24T18:56:44.017Z,94701.66
2023-03-24T18:59:17.991Z,94699.63
2023-03-24T19:01:47.371Z,94708.91
2023-03-24T19:04:19.346Z,94697.56
2023-03-24T19:06:50.404Z,94693.88
2023-03-24T19:09:21.020Z,94712.16
2023-03-24T19:11:51.152Z,94699.94
2023-03-24T19:14:17.796Z,94706.28
2023-03-24T19:16:46.870Z,94700.75
2023-03-24T19:19:18.495Z,94703.41
2023-03-24T19:21:45.160Z,94701.81
2023-03-24T19:24:14.017Z,94699.72
2023-03-24T19:26:42.882Z,94706.06
2023-03-24T19:29:11.802Z,94709.75
2023-03-24T19:31:40.916Z,94716.66
2023-03-24T19:34:07.576Z,94709.75
2023-03-24T19:36:36.985Z,94708.13
2023-03-24T19:39:04.627Z,94706.53
2023-03-24T19:41:33.657Z,94711.81
2023-03-24T19:44:00.424Z,94717.09
2023-03-24T19:46:27.196Z,94710.22
2023-03-24T19:48:58.809Z,94713.44
2023-03-24T19:51:25.541Z,94721.38
2023-03-24T19:53:54.297Z,94711.00
2023-03-24T19:56:25.591Z,94711.81
2023-03-24T19:58:54.752Z,94710.22
2023-03-24T20:01:26.151Z,94716.50
2023-03-24T20:03:53.234Z,94717.31
2023-03-24T20:06:24.568Z,94724.44
2023-03-24T20:08:53.619Z,94722.63
2023-03-24T20:11:25.669Z,94718.38
2023-03-24T20:13:54.476Z,94718.16
2023-03-24T20:16:21.349Z,94721.00
2023-03-24T20:18:53.046Z,94722.84
2023-03-24T20:21:22.667Z,94724.44
2023-03-24T20:23:50.414Z,94719.41
2023-03-24T20:26:19.803Z,94719.97
2023-03-24T20:28:46.771Z,94715.50
2023-03-24T20:31:18.206Z,94714.47
2023-03-24T20:33:47.199Z,94715.03
2023-03-24T20:36:15.992Z,94721.94
2023-03-24T20:38:45.037Z,94715.81
2023-03-24T20:41:19.461Z,94712.97
2023-03-24T20:43:48.931Z,94714.56
2023-03-24T20:46:16.847Z,94711.94
2023-03-24T20:48:45.672Z,94710.88
2023-03-24T20:51:14.754Z,94711.09
2023-03-24T20:53:44.700Z,94709.28
2023-03-24T20:56:15.118Z,94715.38
2023-03-24T20:58:42.525Z,94714.56
2023-03-24T21:01:12.454Z,94712.72
2023-03-24T21:03:41.344Z,94714.56
2023-03-24T21:06:10.665Z,94716.19
2023-03-24T21:08:37.872Z,94710.31
2023-03-24T21:11:04.656Z,94723.31
2023-03-24T21:16:09.089Z,94721.47
2023-03-24T21:18:36.838Z,94721.47
2023-03-24T21:21:05.853Z,94729.41
2023-03-24T21:23:39.337Z,94725.16
2023-03-24T21:26:10.036Z,94726.75
2023-03-24T21:28:36.733Z,94730.44
2023-03-24T21:31:08.406Z,94739.44
2023-03-24T21:33:40.139Z,94738.97
2023-03-24T21:36:11.375Z,94737.34
2023-03-24T21:38:39.184Z,94738.16
2023-03-24T21:41:08.568Z,94736.53
2023-03-24T21:43:35.326Z,94740.56
2023-03-24T21:46:04.153Z,94738.97
2023-03-24T21:48:35.087Z,94732.88
2023-03-24T21:51:06.762Z,94735.28
2023-03-24T21:53:36.030Z,94730.00
2023-03-24T21:56:05.575Z,94729.78
2023-03-24T21:58:35.028Z,94735.84
2023-03-24T22:01:01.740Z,94730.56
2023-03-24T22:03:34.560Z,94730.56
2023-03-24T22:06:03.749Z,94730.56
2023-03-24T22:08:32.781Z,94724.22
2023-03-24T22:11:00.951Z,94731.28
2023-03-24T22:13:28.063Z,94724.38
2023-03-24T22:15:57.423Z,94724.38
2023-03-24T22:18:27.354Z,94718.03
2023-03-24T22:20:55.066Z,94723.31
2023-03-24T22:23:24.504Z,94722.28
2023-03-24T22:25:57.533Z,94724.94
2023-03-24T22:28:26.451Z,94731.84
2023-03-24T22:31:01.843Z,94733.44
2023-03-24T22:33:30.744Z,94725.72
2023-03-24T22:35:58.153Z,94731.03
2023-03-24T22:38:27.664Z,94728.38
2023-03-24T22:41:00.781Z,94733.44
2023-03-24T22:43:27.970Z,94734.50
2023-03-24T22:45:56.941Z,94733.44
2023-03-24T22:48:28.852Z,94736.91
2023-03-24T22:50:58.212Z,94738.75
2023-03-24T22:53:27.091Z,94735.06
2023-03-24T22:55:56.460Z,94740.34
2023-03-24T22:58:25.480Z,94746.47
2023-03-24T23:00:54.646Z,94744.84
2023-03-24T23:03:24.372Z,94735.06
2023-03-24T23:05:53.813Z,94739.56
2023-03-24T23:08:20.573Z,94734.28
2023-03-24T23:10:47.682Z,94734.28
2023-03-24T23:13:20.169Z,94730.81
2023-03-24T23:15:48.071Z,94723.69
2023-03-24T23:18:15.708Z,94724.47
2023-03-24T23:20:49.333Z,94720.22
2023-03-24T23:23:16.744Z,94713.88
2023-03-24T23:25:48.764Z,94708.59
2023-03-24T23:28:15.666Z,94719.19
2023-03-24T23:30:42.443Z,94718.38
2023-03-24T23:33:15.065Z,94724.47
2023-03-24T23:35:41.863Z,94717.56
2023-03-24T23:38:13.168Z,94717.56
2023-03-24T23:40:44.544Z,94719.19
2023-03-24T23:43:14.049Z,94724.47
2023-03-24T23:45:43.537Z,94729.75
2023-03-24T23:48:12.399Z,94728.16
2023-03-24T23:50:41.546Z,94721.03
2023-03-24T23:53:11.087Z,94711.25
2023-03-24T23:55:42.418Z,94710.66
2023-03-24T23:58:11.271Z,94708.59
